sensor_id;sensor_type;location;lat;lon;timestamp;P1;durP1;ratioP1;P2;durP2;ratioP2
45356;SDS011;31092;51.924;21.448;2023-08-20T00:01:04;10.32;;;6.03;;
45356;SDS011;31092;51.924;21.448;2023-08-20T00:03:30;6.38;;;5.90;;
45356;SDS011;31092;51.924;21.448;2023-08-20T00:05:56;5.85;;;5.35;;
45356;SDS011;31092;51.924;21.448;2023-08-20T00:08:22;6.03;;;5.53;;
45356;SDS011;31092;51.924;21.448;2023-08-20T00:10:48;5.55;;;5.15;;
45356;SDS011;31092;51.924;21.448;2023-08-20T00:13:13;6.55;;;5.95;;
45356;SDS011;31092;51.924;21.448;2023-08-20T00:15:39;6.43;;;5.93;;
45356;SDS011;31092;51.924;21.448;2023-08-20T00:18:05;6.45;;;5.72;;
45356;SDS011;31092;51.924;21.448;2023-08-20T00:20:31;6.50;;;6.00;;
45356;SDS011;31092;51.924;21.448;2023-08-20T00:22:57;6.40;;;5.90;;
45356;SDS011;31092;51.924;21.448;2023-08-20T00:25:23;6.78;;;6.18;;
45356;SDS011;31092;51.924;21.448;2023-08-20T00:27:49;6.28;;;5.75;;
45356;SDS011;31092;51.924;21.448;2023-08-20T00:30:14;6.40;;;5.80;;
45356;SDS011;31092;51.924;21.448;2023-08-20T00:32:40;5.78;;;5.38;;
45356;SDS011;31092;51.924;21.448;2023-08-20T00:35:06;5.97;;;5.43;;
45356;SDS011;31092;51.924;21.448;2023-08-20T00:37:35;7.13;;;6.30;;
45356;SDS011;31092;51.924;21.448;2023-08-20T00:40:01;6.32;;;5.80;;
45356;SDS011;31092;51.924;21.448;2023-08-20T00:42:29;6.18;;;5.68;;
45356;SDS011;31092;51.924;21.448;2023-08-20T00:45:04;6.57;;;5.97;;
45356;SDS011;31092;51.924;21.448;2023-08-20T00:47:30;6.90;;;6.30;;
45356;SDS011;31092;51.924;21.448;2023-08-20T00:49:56;9.02;;;6.28;;
45356;SDS011;31092;51.924;21.448;2023-08-20T00:52:22;6.45;;;5.88;;
45356;SDS011;31092;51.924;21.448;2023-08-20T00:54:48;5.95;;;5.47;;
45356;SDS011;31092;51.924;21.448;2023-08-20T00:57:15;7.72;;;5.28;;
45356;SDS011;31092;51.924;21.448;2023-08-20T00:59:43;8.13;;;6.18;;
45356;SDS011;31092;51.924;21.448;2023-08-20T01:02:09;6.28;;;5.68;;
45356;SDS011;31092;51.924;21.448;2023-08-20T01:04:36;5.70;;;5.20;;
45356;SDS011;31092;51.924;21.448;2023-08-20T01:12:35;5.43;;;4.93;;
45356;SDS011;31092;51.924;21.448;2023-08-20T01:15:01;6.28;;;5.68;;
45356;SDS011;31092;51.924;21.448;2023-08-20T01:17:30;5.50;;;5.10;;
45356;SDS011;31092;51.924;21.448;2023-08-20T01:19:56;5.38;;;4.97;;
45356;SDS011;31092;51.924;21.448;2023-08-20T01:28:23;7.38;;;5.53;;
45356;SDS011;31092;51.924;21.448;2023-08-20T01:30:57;5.50;;;4.95;;
45356;SDS011;31092;51.924;21.448;2023-08-20T01:33:25;5.50;;;5.00;;
45356;SDS011;31092;51.924;21.448;2023-08-20T01:35:52;5.63;;;5.05;;
45356;SDS011;31092;51.924;21.448;2023-08-20T01:38:18;5.38;;;4.68;;
45356;SDS011;31092;51.924;21.448;2023-08-20T01:40:47;5.43;;;4.95;;
45356;SDS011;31092;51.924;21.448;2023-08-20T01:43:13;5.30;;;4.80;;
45356;SDS011;31092;51.924;21.448;2023-08-20T01:45:39;6.28;;;5.57;;
45356;SDS011;31092;51.924;21.448;2023-08-20T01:48:04;5.07;;;4.68;;
45356;SDS011;31092;51.924;21.448;2023-08-20T01:50:30;6.32;;;5.10;;
45356;SDS011;31092;51.924;21.448;2023-08-20T01:52:56;6.80;;;5.10;;
45356;SDS011;31092;51.924;21.448;2023-08-20T01:55:22;4.97;;;4.50;;
45356;SDS011;31092;51.924;21.448;2023-08-20T01:57:50;6.53;;;4.47;;
45356;SDS011;31092;51.924;21.448;2023-08-20T02:00:16;5.70;;;4.82;;
45356;SDS011;31092;51.924;21.448;2023-08-20T02:02:42;4.95;;;4.55;;
45356;SDS011;31092;51.924;21.448;2023-08-20T02:05:08;4.75;;;4.45;;
45356;SDS011;31092;51.924;21.448;2023-08-20T02:07:35;4.88;;;4.55;;
45356;SDS011;31092;51.924;21.448;2023-08-20T02:10:01;5.65;;;4.40;;
45356;SDS011;31092;51.924;21.448;2023-08-20T02:12:27;5.25;;;4.85;;
45356;SDS011;31092;51.924;21.448;2023-08-20T02:14:53;5.75;;;4.97;;
45356;SDS011;31092;51.924;21.448;2023-08-20T02:17:18;4.88;;;4.45;;
45356;SDS011;31092;51.924;21.448;2023-08-20T02:19:44;4.50;;;4.15;;
45356;SDS011;31092;51.924;21.448;2023-08-20T02:22:10;4.72;;;4.30;;
45356;SDS011;31092;51.924;21.448;2023-08-20T02:24:35;5.55;;;4.25;;
45356;SDS011;31092;51.924;21.448;2023-08-20T02:27:02;4.80;;;4.40;;
45356;SDS011;31092;51.924;21.448;2023-08-20T02:29:28;5.60;;;5.00;;
45356;SDS011;31092;51.924;21.448;2023-08-20T02:31:53;5.40;;;4.93;;
45356;SDS011;31092;51.924;21.448;2023-08-20T02:34:19;5.07;;;4.68;;
45356;SDS011;31092;51.924;21.448;2023-08-20T02:36:44;5.55;;;5.05;;
45356;SDS011;31092;51.924;21.448;2023-08-20T02:39:13;5.65;;;5.15;;
45356;SDS011;31092;51.924;21.448;2023-08-20T02:41:38;5.10;;;4.65;;
45356;SDS011;31092;51.924;21.448;2023-08-20T02:44:04;6.07;;;5.55;;
45356;SDS011;31092;51.924;21.448;2023-08-20T02:46:30;4.60;;;4.30;;
45356;SDS011;31092;51.924;21.448;2023-08-20T02:48:55;5.68;;;5.18;;
45356;SDS011;31092;51.924;21.448;2023-08-20T02:51:21;5.22;;;4.72;;
45356;SDS011;31092;51.924;21.448;2023-08-20T02:53:47;5.50;;;5.00;;
45356;SDS011;31092;51.924;21.448;2023-08-20T02:56:13;5.60;;;4.68;;
45356;SDS011;31092;51.924;21.448;2023-08-20T02:58:41;5.72;;;5.13;;
45356;SDS011;31092;51.924;21.448;2023-08-20T03:01:07;5.60;;;5.10;;
45356;SDS011;31092;51.924;21.448;2023-08-20T03:03:43;5.05;;;4.60;;
45356;SDS011;31092;51.924;21.448;2023-08-20T03:06:08;6.20;;;4.82;;
45356;SDS011;31092;51.924;21.448;2023-08-20T03:08:34;6.20;;;5.60;;
45356;SDS011;31092;51.924;21.448;2023-08-20T03:11:09;5.40;;;4.90;;
45356;SDS011;31092;51.924;21.448;2023-08-20T03:13:34;5.05;;;4.55;;
45356;SDS011;31092;51.924;21.448;2023-08-20T03:16:00;5.30;;;4.45;;
45356;SDS011;31092;51.924;21.448;2023-08-20T03:18:26;4.10;;;3.70;;
45356;SDS011;31092;51.924;21.448;2023-08-20T03:20:53;5.00;;;4.60;;
45356;SDS011;31092;51.924;21.448;2023-08-20T03:23:21;5.57;;;5.07;;
45356;SDS011;31092;51.924;21.448;2023-08-20T03:25:47;4.68;;;4.35;;
45356;SDS011;31092;51.924;21.448;2023-08-20T03:28:12;5.43;;;4.88;;
45356;SDS011;31092;51.924;21.448;2023-08-20T03:30:38;6.20;;;4.95;;
45356;SDS011;31092;51.924;21.448;2023-08-20T03:33:04;4.53;;;4.22;;
45356;SDS011;31092;51.924;21.448;2023-08-20T03:35:29;4.68;;;4.28;;
45356;SDS011;31092;51.924;21.448;2023-08-20T03:37:57;5.10;;;4.68;;
45356;SDS011;31092;51.924;21.448;2023-08-20T03:40:23;5.15;;;4.65;;
45356;SDS011;31092;51.924;21.448;2023-08-20T03:42:49;4.82;;;4.35;;
45356;SDS011;31092;51.924;21.448;2023-08-20T03:45:14;5.20;;;4.80;;
45356;SDS011;31092;51.924;21.448;2023-08-20T03:47:40;4.60;;;4.22;;
45356;SDS011;31092;51.924;21.448;2023-08-20T03:50:09;5.95;;;4.50;;
45356;SDS011;31092;51.924;21.448;2023-08-20T03:52:35;5.60;;;5.10;;
45356;SDS011;31092;51.924;21.448;2023-08-20T03:55:00;4.85;;;4.45;;
45356;SDS011;31092;51.924;21.448;2023-08-20T03:57:26;6.03;;;5.57;;
45356;SDS011;31092;51.924;21.448;2023-08-20T03:59:51;5.38;;;4.88;;
45356;SDS011;31092;51.924;21.448;2023-08-20T04:02:17;5.25;;;4.60;;
45356;SDS011;31092;51.924;21.448;2023-08-20T04:04:43;3.22;;;2.92;;
45356;SDS011;31092;51.924;21.448;2023-08-20T04:07:08;6.10;;;4.45;;
45356;SDS011;31092;51.924;21.448;2023-08-20T04:09:37;4.13;;;3.78;;
45356;SDS011;31092;51.924;21.448;2023-08-20T04:12:03;5.38;;;4.63;;
45356;SDS011;31092;51.924;21.448;2023-08-20T04:14:29;4.60;;;4.20;;
45356;SDS011;31092;51.924;21.448;2023-08-20T04:16:55;5.03;;;4.55;;
45356;SDS011;31092;51.924;21.448;2023-08-20T04:19:20;4.85;;;4.13;;
45356;SDS011;31092;51.924;21.448;2023-08-20T04:21:46;5.13;;;4.60;;
45356;SDS011;31092;51.924;21.448;2023-08-20T04:24:12;5.35;;;4.38;;
45356;SDS011;31092;51.924;21.448;2023-08-20T04:26:38;5.13;;;4.25;;
45356;SDS011;31092;51.924;21.448;2023-08-20T04:29:03;5.28;;;4.82;;
45356;SDS011;31092;51.924;21.448;2023-08-20T04:31:29;4.97;;;4.57;;
45356;SDS011;31092;51.924;21.448;2023-08-20T04:33:57;5.00;;;4.57;;
45356;SDS011;31092;51.924;21.448;2023-08-20T04:36:23;5.30;;;4.80;;
45356;SDS011;31092;51.924;21.448;2023-08-20T04:38:49;5.63;;;4.97;;
45356;SDS011;31092;51.924;21.448;2023-08-20T04:41:14;5.57;;;5.07;;
45356;SDS011;31092;51.924;21.448;2023-08-20T04:43:40;6.75;;;5.13;;
45356;SDS011;31092;51.924;21.448;2023-08-20T04:46:05;5.55;;;5.05;;
45356;SDS011;31092;51.924;21.448;2023-08-20T04:48:38;6.93;;;5.72;;
45356;SDS011;31092;51.924;21.448;2023-08-20T04:51:04;6.03;;;5.40;;
45356;SDS011;31092;51.924;21.448;2023-08-20T04:53:31;5.72;;;5.22;;
45356;SDS011;31092;51.924;21.448;2023-08-20T04:55:57;6.78;;;5.53;;
45356;SDS011;31092;51.924;21.448;2023-08-20T04:58:23;7.88;;;5.40;;
45356;SDS011;31092;51.924;21.448;2023-08-20T05:00:49;6.45;;;5.85;;
45356;SDS011;31092;51.924;21.448;2023-08-20T05:03:15;7.57;;;5.93;;
45356;SDS011;31092;51.924;21.448;2023-08-20T05:05:40;9.23;;;6.20;;
45356;SDS011;31092;51.924;21.448;2023-08-20T05:08:06;5.55;;;5.03;;
45356;SDS011;31092;51.924;21.448;2023-08-20T05:10:40;5.80;;;5.07;;
45356;SDS011;31092;51.924;21.448;2023-08-20T05:13:06;6.47;;;5.57;;
45356;SDS011;31092;51.924;21.448;2023-08-20T05:15:32;5.38;;;4.88;;
45356;SDS011;31092;51.924;21.448;2023-08-20T05:18:07;6.22;;;5.35;;
45356;SDS011;31092;51.924;21.448;2023-08-20T05:20:33;6.13;;;5.38;;
45356;SDS011;31092;51.924;21.448;2023-08-20T05:22:59;6.57;;;5.55;;
45356;SDS011;31092;51.924;21.448;2023-08-20T05:25:25;5.90;;;4.80;;
45356;SDS011;31092;51.924;21.448;2023-08-20T05:27:51;5.95;;;5.32;;
45356;SDS011;31092;51.924;21.448;2023-08-20T05:30:19;8.05;;;6.10;;
45356;SDS011;31092;51.924;21.448;2023-08-20T05:32:45;16.02;;;5.88;;
45356;SDS011;31092;51.924;21.448;2023-08-20T05:35:11;11.02;;;6.00;;
45356;SDS011;31092;51.924;21.448;2023-08-20T05:37:36;5.93;;;5.35;;
45356;SDS011;31092;51.924;21.448;2023-08-20T05:40:02;6.68;;;5.65;;
45356;SDS011;31092;51.924;21.448;2023-08-20T05:42:28;6.90;;;5.68;;
45356;SDS011;31092;51.924;21.448;2023-08-20T05:44:53;6.22;;;5.55;;
45356;SDS011;31092;51.924;21.448;2023-08-20T05:47:19;5.95;;;5.25;;
45356;SDS011;31092;51.924;21.448;2023-08-20T05:49:45;5.13;;;4.57;;
45356;SDS011;31092;51.924;21.448;2023-08-20T05:52:10;5.85;;;5.18;;
45356;SDS011;31092;51.924;21.448;2023-08-20T05:54:35;6.22;;;5.70;;
45356;SDS011;31092;51.924;21.448;2023-08-20T05:57:01;6.00;;;5.40;;
45356;SDS011;31092;51.924;21.448;2023-08-20T05:59:27;7.53;;;5.05;;
45356;SDS011;31092;51.924;21.448;2023-08-20T06:01:53;6.45;;;4.90;;
45356;SDS011;31092;51.924;21.448;2023-08-20T06:04:19;5.60;;;5.07;;
45356;SDS011;31092;51.924;21.448;2023-08-20T06:06:45;8.75;;;5.68;;
45356;SDS011;31092;51.924;21.448;2023-08-20T06:09:10;7.03;;;5.78;;
45356;SDS011;31092;51.924;21.448;2023-08-20T06:11:36;5.35;;;4.85;;
45356;SDS011;31092;51.924;21.448;2023-08-20T06:14:01;5.80;;;5.30;;
45356;SDS011;31092;51.924;21.448;2023-08-20T06:16:27;5.90;;;5.40;;
45356;SDS011;31092;51.924;21.448;2023-08-20T06:18:53;5.93;;;4.95;;
45356;SDS011;31092;51.924;21.448;2023-08-20T06:21:18;7.57;;;5.93;;
45356;SDS011;31092;51.924;21.448;2023-08-20T06:23:46;6.93;;;6.28;;
45356;SDS011;31092;51.924;21.448;2023-08-20T06:26:12;7.20;;;6.50;;
45356;SDS011;31092;51.924;21.448;2023-08-20T06:28:37;6.18;;;5.63;;
45356;SDS011;31092;51.924;21.448;2023-08-20T06:31:03;6.70;;;6.13;;
45356;SDS011;31092;51.924;21.448;2023-08-20T06:33:28;9.00;;;7.00;;
45356;SDS011;31092;51.924;21.448;2023-08-20T06:35:54;9.93;;;6.00;;
45356;SDS011;31092;51.924;21.448;2023-08-20T06:38:19;7.80;;;6.03;;
45356;SDS011;31092;51.924;21.448;2023-08-20T06:40:45;6.80;;;6.10;;
45356;SDS011;31092;51.924;21.448;2023-08-20T06:43:10;9.48;;;6.45;;
45356;SDS011;31092;51.924;21.448;2023-08-20T06:45:36;8.63;;;6.15;;
45356;SDS011;31092;51.924;21.448;2023-08-20T06:48:01;6.63;;;5.80;;
45356;SDS011;31092;51.924;21.448;2023-08-20T06:50:27;6.30;;;5.70;;
45356;SDS011;31092;51.924;21.448;2023-08-20T06:52:52;5.30;;;4.80;;
45356;SDS011;31092;51.924;21.448;2023-08-20T06:55:18;4.97;;;4.40;;
45356;SDS011;31092;51.924;21.448;2023-08-20T06:57:43;6.57;;;5.45;;
45356;SDS011;31092;51.924;21.448;2023-08-20T07:00:09;5.57;;;5.07;;
45356;SDS011;31092;51.924;21.448;2023-08-20T07:02:34;7.25;;;5.47;;
45356;SDS011;31092;51.924;21.448;2023-08-20T07:05:00;5.78;;;4.80;;
45356;SDS011;31092;51.924;21.448;2023-08-20T07:07:26;5.22;;;4.78;;
45356;SDS011;31092;51.924;21.448;2023-08-20T07:09:51;7.35;;;5.13;;
45356;SDS011;31092;51.924;21.448;2023-08-20T07:12:16;6.22;;;5.63;;
45356;SDS011;31092;51.924;21.448;2023-08-20T07:14:42;6.35;;;5.43;;
45356;SDS011;31092;51.924;21.448;2023-08-20T07:17:07;5.63;;;5.13;;
45356;SDS011;31092;51.924;21.448;2023-08-20T07:19:33;6.13;;;4.95;;
45356;SDS011;31092;51.924;21.448;2023-08-20T07:21:59;5.63;;;5.18;;
45356;SDS011;31092;51.924;21.448;2023-08-20T07:24:24;6.32;;;4.68;;
45356;SDS011;31092;51.924;21.448;2023-08-20T07:27:01;6.78;;;5.75;;
45356;SDS011;31092;51.924;21.448;2023-08-20T07:29:29;8.40;;;4.93;;
45356;SDS011;31092;51.924;21.448;2023-08-20T07:31:55;5.75;;;4.60;;
45356;SDS011;31092;51.924;21.448;2023-08-20T07:34:22;5.88;;;5.25;;
45356;SDS011;31092;51.924;21.448;2023-08-20T07:36:47;5.43;;;5.03;;
45356;SDS011;31092;51.924;21.448;2023-08-20T07:39:13;5.20;;;4.80;;
45356;SDS011;31092;51.924;21.448;2023-08-20T07:41:40;6.35;;;5.60;;
45356;SDS011;31092;51.924;21.448;2023-08-20T07:44:05;5.47;;;4.88;;
45356;SDS011;31092;51.924;21.448;2023-08-20T07:46:31;4.85;;;4.45;;
45356;SDS011;31092;51.924;21.448;2023-08-20T07:48:56;5.85;;;5.38;;
45356;SDS011;31092;51.924;21.448;2023-08-20T07:51:22;6.55;;;5.43;;
45356;SDS011;31092;51.924;21.448;2023-08-20T07:53:47;5.20;;;4.80;;
45356;SDS011;31092;51.924;21.448;2023-08-20T07:56:13;5.10;;;4.70;;
45356;SDS011;31092;51.924;21.448;2023-08-20T07:58:39;5.38;;;5.00;;
45356;SDS011;31092;51.924;21.448;2023-08-20T08:01:04;6.00;;;5.45;;
45356;SDS011;31092;51.924;21.448;2023-08-20T08:03:29;5.82;;;5.35;;
45356;SDS011;31092;51.924;21.448;2023-08-20T08:05:55;5.38;;;4.90;;
45356;SDS011;31092;51.924;21.448;2023-08-20T08:08:21;5.40;;;5.03;;
45356;SDS011;31092;51.924;21.448;2023-08-20T08:10:47;6.15;;;5.65;;
45356;SDS011;31092;51.924;21.448;2023-08-20T08:13:14;5.70;;;5.30;;
45356;SDS011;31092;51.924;21.448;2023-08-20T08:15:41;5.00;;;4.70;;
45356;SDS011;31092;51.924;21.448;2023-08-20T08:18:07;5.05;;;4.65;;
45356;SDS011;31092;51.924;21.448;2023-08-20T08:20:33;5.78;;;5.32;;
45356;SDS011;31092;51.924;21.448;2023-08-20T08:22:59;6.00;;;5.50;;
45356;SDS011;31092;51.924;21.448;2023-08-20T08:25:25;6.10;;;5.57;;
45356;SDS011;31092;51.924;21.448;2023-08-20T08:27:51;5.75;;;5.45;;
45356;SDS011;31092;51.924;21.448;2023-08-20T08:30:17;6.65;;;6.05;;
45356;SDS011;31092;51.924;21.448;2023-08-20T08:32:43;5.97;;;5.38;;
45356;SDS011;31092;51.924;21.448;2023-08-20T08:35:08;6.53;;;6.10;;
45356;SDS011;31092;51.924;21.448;2023-08-20T08:37:34;6.00;;;5.60;;
45356;SDS011;31092;51.924;21.448;2023-08-20T08:39:59;6.82;;;6.20;;
45356;SDS011;31092;51.924;21.448;2023-08-20T08:42:25;6.00;;;5.60;;
45356;SDS011;31092;51.924;21.448;2023-08-20T08:44:50;6.13;;;5.72;;
45356;SDS011;31092;51.924;21.448;2023-08-20T08:47:21;6.15;;;5.75;;
45356;SDS011;31092;51.924;21.448;2023-08-20T08:49:47;6.35;;;5.85;;
45356;SDS011;31092;51.924;21.448;2023-08-20T08:52:13;6.00;;;5.70;;
45356;SDS011;31092;51.924;21.448;2023-08-20T08:54:39;6.55;;;6.13;;
45356;SDS011;31092;51.924;21.448;2023-08-20T08:57:04;6.78;;;6.40;;
45356;SDS011;31092;51.924;21.448;2023-08-20T08:59:30;7.18;;;6.50;;
45356;SDS011;31092;51.924;21.448;2023-08-20T09:01:56;6.75;;;6.30;;
45356;SDS011;31092;51.924;21.448;2023-08-20T09:04:22;6.13;;;5.63;;
45356;SDS011;31092;51.924;21.448;2023-08-20T09:06:49;6.13;;;5.78;;
45356;SDS011;31092;51.924;21.448;2023-08-20T09:09:19;5.88;;;5.35;;
45356;SDS011;31092;51.924;21.448;2023-08-20T09:11:48;6.28;;;5.85;;
45356;SDS011;31092;51.924;21.448;2023-08-20T09:14:20;5.60;;;5.20;;
45356;SDS011;31092;51.924;21.448;2023-08-20T09:16:54;6.40;;;5.75;;
45356;SDS011;31092;51.924;21.448;2023-08-20T09:19:21;6.57;;;6.00;;
45356;SDS011;31092;51.924;21.448;2023-08-20T09:21:46;6.85;;;6.35;;
45356;SDS011;31092;51.924;21.448;2023-08-20T09:24:13;6.43;;;6.03;;
45356;SDS011;31092;51.924;21.448;2023-08-20T09:26:39;6.10;;;5.70;;
45356;SDS011;31092;51.924;21.448;2023-08-20T09:29:04;6.47;;;5.97;;
45356;SDS011;31092;51.924;21.448;2023-08-20T09:31:39;7.22;;;6.13;;
45356;SDS011;31092;51.924;21.448;2023-08-20T09:34:05;7.10;;;6.55;;
45356;SDS011;31092;51.924;21.448;2023-08-20T09:36:31;6.35;;;5.95;;
45356;SDS011;31092;51.924;21.448;2023-08-20T09:38:57;6.72;;;6.32;;
45356;SDS011;31092;51.924;21.448;2023-08-20T09:41:23;7.05;;;6.45;;
45356;SDS011;31092;51.924;21.448;2023-08-20T09:43:51;6.93;;;6.53;;
45356;SDS011;31092;51.924;21.448;2023-08-20T09:46:21;7.13;;;6.60;;
45356;SDS011;31092;51.924;21.448;2023-08-20T09:48:52;7.10;;;6.50;;
45356;SDS011;31092;51.924;21.448;2023-08-20T09:51:24;7.43;;;6.83;;
45356;SDS011;31092;51.924;21.448;2023-08-20T09:54:02;7.15;;;6.75;;
45356;SDS011;31092;51.924;21.448;2023-08-20T09:56:51;6.43;;;5.93;;
45356;SDS011;31092;51.924;21.448;2023-08-20T09:59:23;6.65;;;6.15;;
45356;SDS011;31092;51.924;21.448;2023-08-20T10:01:50;6.53;;;6.13;;
45356;SDS011;31092;51.924;21.448;2023-08-20T10:04:16;6.13;;;5.72;;
45356;SDS011;31092;51.924;21.448;2023-08-20T10:06:43;6.47;;;5.97;;
45356;SDS011;31092;51.924;21.448;2023-08-20T10:09:09;8.07;;;6.28;;
45356;SDS011;31092;51.924;21.448;2023-08-20T10:11:34;6.78;;;6.38;;
45356;SDS011;31092;51.924;21.448;2023-08-20T10:14:02;6.65;;;6.30;;
45356;SDS011;31092;51.924;21.448;2023-08-20T10:16:28;6.47;;;5.97;;
45356;SDS011;31092;51.924;21.448;2023-08-20T10:18:53;6.40;;;6.00;;
45356;SDS011;31092;51.924;21.448;2023-08-20T10:21:23;7.68;;;7.07;;
45356;SDS011;31092;51.924;21.448;2023-08-20T10:23:49;7.00;;;6.40;;
45356;SDS011;31092;51.924;21.448;2023-08-20T10:26:15;7.30;;;6.80;;
45356;SDS011;31092;51.924;21.448;2023-08-20T10:28:46;7.10;;;6.60;;
45356;SDS011;31092;51.924;21.448;2023-08-20T10:31:12;6.55;;;6.15;;
45356;SDS011;31092;51.924;21.448;2023-08-20T10:36:16;6.57;;;6.18;;
45356;SDS011;31092;51.924;21.448;2023-08-20T10:38:47;6.45;;;6.05;;
45356;SDS011;31092;51.924;21.448;2023-08-20T10:41:14;6.93;;;6.35;;
45356;SDS011;31092;51.924;21.448;2023-08-20T10:43:48;6.43;;;5.95;;
45356;SDS011;31092;51.924;21.448;2023-08-20T10:46:17;6.72;;;6.22;;
45356;SDS011;31092;51.924;21.448;2023-08-20T10:56:37;7.53;;;6.82;;
45356;SDS011;31092;51.924;21.448;2023-08-20T10:59:26;6.63;;;6.13;;
45356;SDS011;31092;51.924;21.448;2023-08-20T11:01:58;6.80;;;6.20;;
45356;SDS011;31092;51.924;21.448;2023-08-20T11:04:27;6.80;;;6.28;;
45356;SDS011;31092;51.924;21.448;2023-08-20T11:06:57;7.00;;;6.50;;
45356;SDS011;31092;51.924;21.448;2023-08-20T11:09:24;6.80;;;6.35;;
45356;SDS011;31092;51.924;21.448;2023-08-20T11:11:54;6.95;;;6.45;;
45356;SDS011;31092;51.924;21.448;2023-08-20T11:14:21;7.18;;;6.70;;
45356;SDS011;31092;51.924;21.448;2023-08-20T11:16:47;8.52;;;6.25;;
45356;SDS011;31092;51.924;21.448;2023-08-20T11:19:20;7.55;;;6.95;;
45356;SDS011;31092;51.924;21.448;2023-08-20T11:21:47;7.07;;;6.57;;
45356;SDS011;31092;51.924;21.448;2023-08-20T11:24:13;6.88;;;6.40;;
45356;SDS011;31092;51.924;21.448;2023-08-20T11:26:39;7.32;;;6.80;;
45356;SDS011;31092;51.924;21.448;2023-08-20T11:29:08;7.32;;;6.82;;
45356;SDS011;31092;51.924;21.448;2023-08-20T11:31:38;7.82;;;7.30;;
45356;SDS011;31092;51.924;21.448;2023-08-20T11:34:04;7.82;;;7.15;;
45356;SDS011;31092;51.924;21.448;2023-08-20T11:36:31;7.05;;;6.57;;
45356;SDS011;31092;51.924;21.448;2023-08-20T11:38:56;7.55;;;6.97;;
45356;SDS011;31092;51.924;21.448;2023-08-20T11:41:22;6.78;;;6.28;;
45356;SDS011;31092;51.924;21.448;2023-08-20T11:43:49;6.95;;;6.45;;
45356;SDS011;31092;51.924;21.448;2023-08-20T11:46:19;6.90;;;6.30;;
45356;SDS011;31092;51.924;21.448;2023-08-20T11:51:34;7.20;;;6.70;;
45356;SDS011;31092;51.924;21.448;2023-08-20T11:54:01;7.40;;;6.85;;
45356;SDS011;31092;51.924;21.448;2023-08-20T11:56:26;6.05;;;5.55;;
45356;SDS011;31092;51.924;21.448;2023-08-20T11:58:52;6.38;;;5.97;;
45356;SDS011;31092;51.924;21.448;2023-08-20T12:01:23;6.32;;;5.93;;
45356;SDS011;31092;51.924;21.448;2023-08-20T12:03:49;6.35;;;5.85;;
45356;SDS011;31092;51.924;21.448;2023-08-20T12:06:21;7.13;;;6.60;;
45356;SDS011;31092;51.924;21.448;2023-08-20T12:08:50;7.68;;;7.07;;
45356;SDS011;31092;51.924;21.448;2023-08-20T12:11:15;7.72;;;6.53;;
45356;SDS011;31092;51.924;21.448;2023-08-20T12:13:41;6.55;;;5.93;;
45356;SDS011;31092;51.924;21.448;2023-08-20T12:16:06;6.38;;;5.88;;
45356;SDS011;31092;51.924;21.448;2023-08-20T12:18:32;6.78;;;6.28;;
45356;SDS011;31092;51.924;21.448;2023-08-20T12:20:58;7.85;;;7.28;;
45356;SDS011;31092;51.924;21.448;2023-08-20T12:23:23;6.70;;;6.30;;
45356;SDS011;31092;51.924;21.448;2023-08-20T12:25:51;7.20;;;6.60;;
45356;SDS011;31092;51.924;21.448;2023-08-20T12:28:17;7.10;;;6.70;;
45356;SDS011;31092;51.924;21.448;2023-08-20T12:30:43;6.95;;;6.43;;
45356;SDS011;31092;51.924;21.448;2023-08-20T12:33:09;6.60;;;6.20;;
45356;SDS011;31092;51.924;21.448;2023-08-20T12:35:36;7.53;;;6.97;;
45356;SDS011;31092;51.924;21.448;2023-08-20T12:38:02;8.05;;;7.07;;
45356;SDS011;31092;51.924;21.448;2023-08-20T12:40:28;6.82;;;6.32;;
45356;SDS011;31092;51.924;21.448;2023-08-20T12:42:53;6.60;;;6.10;;
45356;SDS011;31092;51.924;21.448;2023-08-20T12:45:19;7.93;;;7.30;;
45356;SDS011;31092;51.924;21.448;2023-08-20T12:47:45;6.68;;;6.18;;
45356;SDS011;31092;51.924;21.448;2023-08-20T12:50:10;7.28;;;6.78;;
45356;SDS011;31092;51.924;21.448;2023-08-20T12:52:38;7.20;;;6.60;;
45356;SDS011;31092;51.924;21.448;2023-08-20T12:55:04;7.25;;;6.68;;
45356;SDS011;31092;51.924;21.448;2023-08-20T12:57:30;7.05;;;6.55;;
45356;SDS011;31092;51.924;21.448;2023-08-20T12:59:55;7.00;;;6.45;;
45356;SDS011;31092;51.924;21.448;2023-08-20T13:02:21;7.63;;;7.05;;
45356;SDS011;31092;51.924;21.448;2023-08-20T13:04:47;8.27;;;6.82;;
45356;SDS011;31092;51.924;21.448;2023-08-20T13:07:13;6.22;;;5.82;;
45356;SDS011;31092;51.924;21.448;2023-08-20T13:09:38;6.15;;;5.78;;
45356;SDS011;31092;51.924;21.448;2023-08-20T13:12:04;7.00;;;6.43;;
45356;SDS011;31092;51.924;21.448;2023-08-20T13:16:59;7.55;;;7.05;;
45356;SDS011;31092;51.924;21.448;2023-08-20T13:19:25;7.07;;;6.57;;
45356;SDS011;31092;51.924;21.448;2023-08-20T13:21:50;7.40;;;6.80;;
45356;SDS011;31092;51.924;21.448;2023-08-20T13:24:16;7.45;;;6.95;;
45356;SDS011;31092;51.924;21.448;2023-08-20T13:26:41;6.75;;;6.40;;
45356;SDS011;31092;51.924;21.448;2023-08-20T13:29:07;7.40;;;6.90;;
45356;SDS011;31092;51.924;21.448;2023-08-20T13:31:32;6.90;;;6.40;;
45356;SDS011;31092;51.924;21.448;2023-08-20T13:33:58;7.75;;;7.25;;
45356;SDS011;31092;51.924;21.448;2023-08-20T13:36:23;7.22;;;6.72;;
45356;SDS011;31092;51.924;21.448;2023-08-20T13:38:49;7.55;;;6.90;;
45356;SDS011;31092;51.924;21.448;2023-08-20T13:41:14;7.60;;;6.70;;
45356;SDS011;31092;51.924;21.448;2023-08-20T13:43:40;7.70;;;7.15;;
45356;SDS011;31092;51.924;21.448;2023-08-20T13:46:05;7.63;;;7.03;;
45356;SDS011;31092;51.924;21.448;2023-08-20T13:48:31;7.35;;;6.85;;
45356;SDS011;31092;51.924;21.448;2023-08-20T13:50:56;7.22;;;6.63;;
45356;SDS011;31092;51.924;21.448;2023-08-20T13:53:22;7.75;;;7.20;;
45356;SDS011;31092;51.924;21.448;2023-08-20T13:55:47;7.55;;;6.97;;
45356;SDS011;31092;51.924;21.448;2023-08-20T13:58:13;7.93;;;7.07;;
45356;SDS011;31092;51.924;21.448;2023-08-20T14:00:38;6.97;;;6.38;;
45356;SDS011;31092;51.924;21.448;2023-08-20T14:03:04;6.63;;;5.80;;
45356;SDS011;31092;51.924;21.448;2023-08-20T14:05:29;7.03;;;6.53;;
45356;SDS011;31092;51.924;21.448;2023-08-20T14:07:55;6.53;;;6.03;;
45356;SDS011;31092;51.924;21.448;2023-08-20T14:10:21;6.82;;;6.32;;
45356;SDS011;31092;51.924;21.448;2023-08-20T14:12:47;6.35;;;5.90;;
45356;SDS011;31092;51.924;21.448;2023-08-20T14:15:13;5.68;;;5.38;;
45356;SDS011;31092;51.924;21.448;2023-08-20T14:17:38;6.85;;;6.25;;
45356;SDS011;31092;51.924;21.448;2023-08-20T14:20:04;6.65;;;6.03;;
45356;SDS011;31092;51.924;21.448;2023-08-20T14:22:31;6.35;;;5.95;;
45356;SDS011;31092;51.924;21.448;2023-08-20T14:24:57;6.70;;;6.30;;
45356;SDS011;31092;51.924;21.448;2023-08-20T14:27:22;6.75;;;6.35;;
45356;SDS011;31092;51.924;21.448;2023-08-20T14:29:48;7.63;;;7.00;;
45356;SDS011;31092;51.924;21.448;2023-08-20T14:32:13;7.18;;;6.72;;
45356;SDS011;31092;51.924;21.448;2023-08-20T14:34:39;6.10;;;5.78;;
45356;SDS011;31092;51.924;21.448;2023-08-20T14:37:04;6.70;;;6.30;;
45356;SDS011;31092;51.924;21.448;2023-08-20T14:39:31;6.65;;;6.20;;
45356;SDS011;31092;51.924;21.448;2023-08-20T14:41:57;7.38;;;6.80;;
45356;SDS011;31092;51.924;21.448;2023-08-20T14:44:23;7.50;;;7.00;;
45356;SDS011;31092;51.924;21.448;2023-08-20T14:46:48;8.40;;;7.78;;
45356;SDS011;31092;51.924;21.448;2023-08-20T14:49:15;7.18;;;6.68;;
45356;SDS011;31092;51.924;21.448;2023-08-20T14:51:43;6.40;;;5.95;;
45356;SDS011;31092;51.924;21.448;2023-08-20T14:54:08;6.65;;;6.15;;
45356;SDS011;31092;51.924;21.448;2023-08-20T14:56:33;6.70;;;6.30;;